ADDS METAR Data INFO
IDs: Format: Raw Decoded Include TAF

Data at: 0318 UTC 16 Dec 2017

KHWY 160255Z AUTO 00000KT 10SM CLR M08/M11 A3000 RMK AO2 T10841107
KHWY 160235Z AUTO 00000KT 10SM CLR M09/M11 A3001 RMK AO2 T10861110
KHWY 160215Z AUTO 00000KT 10SM CLR M08/M11 A3000 RMK AO2 T10831106
KHWY 160155Z AUTO 00000KT 10SM CLR M08/M10 A3000 RMK AO2 T10801104
KHWY 160135Z AUTO 00000KT 7SM CLR M08/M11 A3000 RMK AO2 T10831106
KHWY 160115Z AUTO 00000KT 7SM CLR M08/M10 A2999 RMK AO2 T10801103
KHWY 160055Z AUTO 00000KT 7SM CLR M07/M09 A2999 RMK AO2 T10711093
KHWY 160035Z AUTO 00000KT 7SM CLR M07/M10 A2999 RMK AO2 T10741097
KHWY 160015Z AUTO 00000KT 7SM CLR M07/M09 A2998 RMK AO2 T10711090
KHWY 152355Z AUTO 00000KT 5SM BR CLR M07/M09 A2998 RMK AO2 T10691091 11008 21070
KHWY 152335Z AUTO 00000KT 7SM CLR M07/M09 A2997 RMK AO2 T10681089
KHWY 152315Z AUTO 00000KT 7SM CLR M05/M07 A2996 RMK AO2 T10521070
KHWY 152255Z AUTO 00000KT 10SM CLR M04/M06 A2995 RMK AO2 T10441064
KHWY 152235Z AUTO 00000KT 10SM SCT050 M04/M06 A2993 RMK AO2 T10401063
KHWY 152215Z AUTO 00000KT 10SM SCT023 SCT030 BKN050 M03/M06 A2993 RMK AO2 T10301057
KHWY 152155Z AUTO 00000KT 10SM BKN023 BKN029 OVC055 M01/M05 A2993 RMK AO2 T10111046
KHWY 152135Z AUTO 00000KT 10SM SCT011 OVC023 M01/M05 A2993 RMK AO2 T10101046
KHWY 152115Z AUTO 33003KT 10SM SCT022 OVC027 M01/M05 A2993 RMK AO2 T10081047
KHWY 152055Z AUTO 00000KT 10SM BKN027 BKN042 OVC055 M01/M05 A2993 RMK AO2 T10101049
KHWY 152035Z AUTO 00000KT 10SM BKN029 OVC042 M01/M05 A2993 RMK AO2 T10121048
KHWY 152015Z AUTO 00000KT 7SM -SN OVC029 M01/M05 A2993 RMK AO2 T10131051
KHWY 151955Z AUTO 00000KT 10SM OVC029 M01/M05 A2993 RMK AO2 T10111051
KHWY 151935Z AUTO 00000KT 10SM OVC029 M01/M05 A2993 RMK AO2 T10121052
KHWY 151915Z AUTO 00000KT 10SM UP OVC031 M01/M05 A2993 RMK AO2 T10151055
KHWY 151855Z AUTO 00000KT 10SM UP OVC031 M01/M05 A2993 RMK AO2 T10141053
KHWY 151835Z AUTO 00000KT 7SM UP OVC031 M01/M06 A2994 RMK AO2 T10131057
KHWY 151815Z AUTO 34003KT 10SM -SN OVC031 M01/M07 A2994 RMK AO2 T10101066
KHWY 151755Z AUTO 00000KT 10SM UP OVC031 M01/M07 A2995 RMK AO2 T10091074 11001 21015
KHWY 151735Z AUTO 00000KT 10SM UP OVC033 M01/M08 A2996 RMK AO2 T10081080
KHWY 151715Z AUTO 35003KT 10SM -SN OVC033 M01/M08 A2998 RMK AO2 T10071080
KHWY 151655Z AUTO 00000KT 7SM UP OVC033 00/M08 A2999 RMK AO2 T10051085
KHWY 151635Z AUTO 00000KT 10SM OVC029 00/M10 A3000 RMK AO2 T10041097
KHWY 151615Z AUTO 01003KT 10SM OVC029 00/M10 A3001 RMK AO2 T10031100
KHWY 151555Z AUTO 02003KT 10SM OVC031 00/M10 A3003 RMK AO2 T10021098
KHWY 151535Z AUTO 00000KT 10SM OVC033 00/M10 A3005 RMK AO2 T10031100
KHWY 151515Z AUTO 00000KT 10SM OVC033 00/M10 A3005 RMK AO2 T10041099
KHWY 151455Z AUTO 00000KT 10SM OVC035 00/M10 A3006 RMK AO2 T10051101
KHWY 151435Z AUTO 00000KT 10SM OVC037 00/M10 A3006 RMK AO2 T10051104
KHWY 151415Z AUTO 00000KT 10SM OVC039 M01/M10 A3006 RMK AO2 T10061101
KHWY 151355Z AUTO 00000KT 10SM BKN039 OVC050 M01/M09 A3007 RMK AO2 T10101092
KHWY 151335Z AUTO 00000KT 10SM OVC050 M01/M09 A3006 RMK AO2 T10101092
KHWY 151315Z AUTO 00000KT 10SM OVC050 M01/M09 A3006 RMK AO2 T10111094
KHWY 151255Z AUTO 00000KT 10SM OVC050 M01/M09 A3007 RMK AO2 T10151088
KHWY 151235Z AUTO 00000KT 10SM OVC050 M01/M09 A3007 RMK AO2 T10151090
KHWY 151215Z AUTO 00000KT 10SM OVC050 M01/M09 A3008 RMK AO2 T10151094
KHWY 151155Z AUTO 00000KT 10SM OVC050 M01/M09 A3008 RMK AO2 T10151093 11015 21036
KHWY 151135Z AUTO 00000KT 10SM OVC050 M01/M09 A3008 RMK AO2 T10151091
KHWY 151115Z AUTO 00000KT 10SM OVC050 M02/M06 A3009 RMK AO2 T10171065
KHWY 151055Z AUTO 00000KT 10SM OVC050 M02/M06 A3009 RMK AO2 T10171064
KHWY 151035Z AUTO 00000KT 10SM OVC050 M02/M06 A3010 RMK AO2 T10181063
KHWY 151015Z AUTO 00000KT 10SM OVC050 M02/M07 A3009 RMK AO2 T10201071
KHWY 150955Z AUTO 00000KT 10SM OVC050 M02/M07 A3009 RMK AO2 T10211066
KHWY 150935Z AUTO 00000KT 10SM OVC050 M02/M07 A3009 RMK AO2 T10211066
KHWY 150915Z AUTO 00000KT 10SM OVC050 M02/M07 A3010 RMK AO2 T10251070
KHWY 150855Z AUTO 00000KT 10SM BKN050 OVC085 M03/M08 A3010 RMK AO2 T10261079
KHWY 150835Z AUTO 00000KT 10SM OVC085 M03/M07 A3011 RMK AO2 T10271066
KHWY 150815Z AUTO 00000KT 10SM OVC075 M02/M07 A3011 RMK AO2 T10251071
KHWY 150755Z AUTO 00000KT 10SM OVC075 M02/M07 A3011 RMK AO2 T10251069
KHWY 150735Z AUTO 00000KT 10SM BKN075 M03/M08 A3011 RMK AO2 T10281081
KHWY 150715Z AUTO 00000KT 10SM CLR M03/M07 A3011 RMK AO2 T10321071
KHWY 150655Z AUTO 00000KT 10SM CLR M03/M07 A3011 RMK AO2 T10331067
KHWY 150635Z AUTO 00000KT 10SM CLR M03/M08 A3010 RMK AO2 T10321080
KHWY 150615Z AUTO 00000KT 10SM CLR M03/M08 A3010 RMK AO2 T10351079
KHWY 150555Z AUTO 00000KT 10SM CLR M03/M09 A3010 RMK AO2 T10301095 10012 21034 400741034
KHWY 150535Z AUTO 00000KT 10SM CLR M03/M10 A3010 RMK AO2 T10331105
KHWY 150515Z AUTO 00000KT 10SM CLR M02/M11 A3010 RMK AO2 T10191112
KHWY 150455Z AUTO 00000KT 10SM CLR M02/M11 A3010 RMK AO2 T10181113
KHWY 150435Z AUTO 00000KT 10SM CLR M02/M11 A3009 RMK AO2 T10171110
KHWY 150415Z AUTO 05003KT 10SM CLR M01/M11 A3010 RMK AO2 T10151107
KHWY 150355Z AUTO 03004KT 10SM CLR M01/M10 A3010 RMK AO2 T10131101
KHWY 150335Z AUTO 04004KT 10SM CLR M01/M10 A3009 RMK AO2 T10101099
KHWY 150315Z AUTO 02004KT 10SM CLR M01/M09 A3008 RMK AO2 T10061094
KHWY 150255Z AUTO 04005KT 10SM CLR 00/M09 A3008 RMK AO2 T10011095
KHWY 150235Z AUTO 04003KT 10SM CLR 00/M09 A3007 RMK AO2 T10031091
KHWY 150215Z AUTO 02004KT 10SM CLR 00/M09 A3007 RMK AO2 T10011093
KHWY 150155Z AUTO 36005KT 10SM CLR 00/M09 A3007 RMK AO2 T00011094
KHWY 150135Z AUTO 36006KT 10SM CLR 00/M09 A3007 RMK AO2 T00001092
KHWY 150115Z AUTO 36003KT 10SM CLR 00/M09 A3006 RMK AO2 T00001093
KHWY 150055Z AUTO 36004KT 10SM CLR 00/M09 A3005 RMK AO2 T00001095
KHWY 150035Z AUTO 02005KT 10SM CLR 01/M09 A3004 RMK AO2 T00061095
KHWY 150015Z AUTO 04004KT 10SM CLR 01/M09 A3004 RMK AO2 T00091094
KHWY 142355Z AUTO 03003KT 10SM CLR 01/M09 A3003 RMK AO2 T00121095 10068 20012
KHWY 142335Z AUTO 02005KT 10SM CLR 02/M09 A3002 RMK AO2 T00171095
KHWY 142315Z AUTO 04004KT 10SM CLR 02/M09 A3001 RMK AO2 T00221095
KHWY 142255Z AUTO 36008KT 10SM CLR 02/M09 A3000 RMK AO2 T00221093
KHWY 142235Z AUTO 02004KT 10SM CLR 03/M09 A2999 RMK AO2 T00251094
KHWY 142215Z AUTO 36006KT 10SM CLR 03/M10 A2998 RMK AO2 T00291097
KHWY 142155Z AUTO 02005G10KT 10SM CLR 03/M10 A2996 RMK AO2 T00341100
KHWY 142135Z AUTO 35010G15KT 10SM CLR 04/M10 A2995 RMK AO2 T00391102
KHWY 142115Z AUTO 02011G17KT 10SM CLR 05/M11 A2994 RMK AO2 T00461106
KHWY 142055Z AUTO 01008G14KT 10SM CLR 05/M11 A2993 RMK AO2 T00521112
KHWY 142035Z AUTO 35008KT 10SM CLR 06/M11 A2992 RMK AO2 T00601113
KHWY 142015Z AUTO 35006KT 10SM CLR 07/M12 A2991 RMK AO2 T00651116
KHWY 141955Z AUTO 33010KT 10SM CLR 06/M11 A2990 RMK AO2 T00611112
KHWY 141935Z AUTO 34011G16KT 10SM CLR 06/M12 A2990 RMK AO2 T00611116
KHWY 141915Z AUTO 34006KT 10SM CLR 06/M11 A2989 RMK AO2 T00601111
KHWY 141855Z AUTO 01008KT 10SM CLR 06/M11 A2988 RMK AO2 T00611110
KHWY 141835Z AUTO 36007KT 10SM CLR 06/M11 A2988 RMK AO2 T00561109
KHWY 141815Z AUTO 32014G17KT 10SM CLR 07/M10 A2986 RMK AO2 T00651104
KHWY 141755Z AUTO 36013G18KT 10SM CLR 06/M10 A2986 RMK AO2 T00601096 10074 20000
KHWY 141735Z AUTO 36011G18KT 10SM CLR 06/M09 A2986 RMK AO2 T00561092
KHWY 141715Z AUTO 34013G19KT 10SM SCT050 SCT060 06/M09 A2987 RMK AO2 T00591091
KHWY 141655Z AUTO 35011G17KT 10SM OVC060 06/M08 A2986 RMK AO2 T00641076
KHWY 141635Z AUTO 01013KT 10SM OVC050 06/M07 A2986 RMK AO2 T00581073
KHWY 141615Z AUTO 31011G21KT 10SM OVC050 05/M09 A2985 RMK AO2 T00531093
KHWY 141555Z AUTO 32011KT 10SM OVC050 06/M09 A2984 RMK AO2 T00601086
KHWY 141535Z AUTO 32015G20KT 10SM OVC050 06/M08 A2982 RMK AO2 T00621082